Time;durP1;ratioP1;P1;durP2;ratioP2;P2;SDS_P1;SDS_P2;PMS_P1;PMS_P2;Temp;Humidity;BMP_temperature;BMP_pressure;BME280_temperature;BME280_humidity;BME280_pressure;Samples;Min_cycle;Max_cycle;Signal;HPM_P1;HPM_P2
2022/10/10 00:02:05;;;;;;;;;;;;;;;9.09;65.40723;101509.4;;;;-74
2022/10/10 00:03:22;;;;;;;5.4;2.9;;;;;;;;;;;;;-76
2022/10/10 00:07:05;;;;;;;;;;;;;;;9.09;65.42773;101502.2;;;;-74
2022/10/10 00:12:05;;;;;;;;;;;;;;;9.02;65.68457;101500;;;;-73
2022/10/10 00:17:05;;;;;;;;;;;;;;;9.02;65.48535;101502.1;;;;-74
2022/10/10 00:22:05;;;;;;;;;;;;;;;8.99;65.56836;101492.9;;;;-74
2022/10/10 00:27:05;;;;;;;;;;;;;;;8.94;65.72559;101486.6;;;;-74
2022/10/10 00:32:05;;;;;;;;;;;;;;;8.89;65.44238;101483.1;;;;-73
2022/10/10 00:33:23;;;;;;;6.8;3.1;;;;;;;;;;;;;-72
2022/10/10 00:37:05;;;;;;;;;;;;;;;8.88;65.87402;101477.4;;;;-74
2022/10/10 00:42:05;;;;;;;;;;;;;;;8.87;65.79395;101475.7;;;;-73
2022/10/10 00:47:05;;;;;;;;;;;;;;;8.86;65.65918;101475.3;;;;-74
2022/10/10 00:52:06;;;;;;;;;;;;;;;8.8;65.86035;101463.3;;;;-72
2022/10/10 00:57:08;;;;;;;;;;;;;;;8.76;65.72168;101466.5;;;;-75
2022/10/10 01:02:05;;;;;;;;;;;;;;;8.76;65.81055;101462;;;;-73
2022/10/10 01:03:23;;;;;;;5.9;2.9;;;;;;;;;;;;;-75
2022/10/10 01:07:06;;;;;;;;;;;;;;;8.74;65.86328;101462.6;;;;-74
2022/10/10 01:12:11;;;;;;;;;;;;;;;8.75;66.20703;101452.8;;;;-75
2022/10/10 01:17:10;;;;;;;;;;;;;;;8.74;66.47168;101446.9;;;;-73
2022/10/10 01:22:15;;;;;;;;;;;;;;;8.67;66.23926;101446.1;;;;-73
2022/10/10 01:27:19;;;;;;;;;;;;;;;8.68;66.17383;101445.2;;;;-74
2022/10/10 01:32:07;;;;;;;;;;;;;;;8.71;66.61133;101448.3;;;;-73
2022/10/10 01:33:29;;;;;;;6.6;3.5;;;;;;;;;;;;;-74
2022/10/10 01:37:07;;;;;;;;;;;;;;;8.67;66.22852;101440.9;;;;-73
2022/10/10 01:42:08;;;;;;;;;;;;;;;8.68;66.94824;101430.4;;;;-74
2022/10/10 01:47:08;;;;;;;;;;;;;;;8.67;66.99121;101423.8;;;;-74
2022/10/10 01:52:13;;;;;;;;;;;;;;;8.67;66.65918;101417.9;;;;-74
2022/10/10 01:57:16;;;;;;;;;;;;;;;8.66;67.39941;101410.3;;;;-74
2022/10/10 02:02:11;;;;;;;;;;;;;;;8.66;66.91211;101402.9;;;;-74
2022/10/10 02:03:27;;;;;;;7.2;3.5;;;;;;;;;;;;;-75
2022/10/10 02:07:08;;;;;;;;;;;;;;;8.62;66.67285;101401.4;;;;-73
2022/10/10 02:12:06;;;;;;;;;;;;;;;8.64;66.77734;101398.3;;;;-74
2022/10/10 02:17:07;;;;;;;;;;;;;;;8.59;66.51465;101391.7;;;;-73
2022/10/10 02:22:06;;;;;;;;;;;;;;;8.59;66.71289;101390.8;;;;-74
2022/10/10 02:27:09;;;;;;;;;;;;;;;8.59;66.90137;101387.4;;;;-74
2022/10/10 02:32:08;;;;;;;;;;;;;;;8.53;66.52832;101384.6;;;;-74
2022/10/10 02:33:30;;;;;;;7.1;3.6;;;;;;;;;;;;;-74
2022/10/10 02:37:07;;;;;;;;;;;;;;;8.5;66.13574;101383.2;;;;-73
2022/10/10 02:42:07;;;;;;;;;;;;;;;8.48;66.13281;101380.5;;;;-74
2022/10/10 02:47:05;;;;;;;;;;;;;;;8.44;66.45898;101372.2;;;;-74
2022/10/10 02:52:05;;;;;;;;;;;;;;;8.38;66.2832;101371.2;;;;-74
2022/10/10 02:57:05;;;;;;;;;;;;;;;8.33;65.92383;101367;;;;-74
2022/10/10 03:02:05;;;;;;;;;;;;;;;8.31;66.17383;101360;;;;-74
2022/10/10 03:03:25;;;;;;;5.6;3.1;;;;;;;;;;;;;-73
2022/10/10 03:07:06;;;;;;;;;;;;;;;8.23;66.31641;101353.8;;;;-75
2022/10/10 03:12:05;;;;;;;;;;;;;;;8.26;66.59668;101354.6;;;;-74
2022/10/10 03:17:05;;;;;;;;;;;;;;;8.19;66.28711;101354.1;;;;-73
2022/10/10 03:22:05;;;;;;;;;;;;;;;8.21;66.72266;101353.3;;;;-75
2022/10/10 03:27:05;;;;;;;;;;;;;;;8.18;66.48633;101343.8;;;;-75
2022/10/10 03:32:06;;;;;;;;;;;;;;;8.2;66.47754;101346.8;;;;-74
2022/10/10 03:33:25;;;;;;;6.2;3.5;;;;;;;;;;;;;-73
2022/10/10 03:37:05;;;;;;;;;;;;;;;8.18;66.9707;101340.5;;;;-74
2022/10/10 03:42:05;;;;;;;;;;;;;;;8.17;67.6875;101346.9;;;;-74
2022/10/10 03:47:05;;;;;;;;;;;;;;;8.18;67.58008;101345.4;;;;-74
2022/10/10 03:52:05;;;;;;;;;;;;;;;8.2;67.38379;101347.3;;;;-73
2022/10/10 03:57:05;;;;;;;;;;;;;;;8.21;67.65039;101343;;;;-75
2022/10/10 04:02:05;;;;;;;;;;;;;;;8.18;67.21582;101342.1;;;;-74
2022/10/10 04:03:25;;;;;;;7.9;4.1;;;;;;;;;;;;;-75
2022/10/10 04:07:05;;;;;;;;;;;;;;;8.24;67.6875;101336.6;;;;-74
2022/10/10 04:12:05;;;;;;;;;;;;;;;8.18;67.92188;101333.4;;;;-74
2022/10/10 04:17:05;;;;;;;;;;;;;;;8.18;68.01074;101333.1;;;;-75
2022/10/10 04:22:05;;;;;;;;;;;;;;;8.19;67.82324;101324.3;;;;-74
2022/10/10 04:27:05;;;;;;;;;;;;;;;8.19;68.51855;101322.5;;;;-75
2022/10/10 04:32:06;;;;;;;;;;;;;;;8.17;68.52637;101329.8;;;;-74
2022/10/10 04:33:25;;;;;;;6.4;3.7;;;;;;;;;;;;;-73
2022/10/10 04:37:05;;;;;;;;;;;;;;;8.18;68.69336;101334.7;;;;-74
2022/10/10 04:42:05;;;;;;;;;;;;;;;8.17;68.32813;101333;;;;-73
2022/10/10 04:47:06;;;;;;;;;;;;;;;8.2;69.09375;101336.7;;;;-74
2022/10/10 04:52:05;;;;;;;;;;;;;;;8.17;68.66992;101331.4;;;;-73
2022/10/10 04:57:05;;;;;;;;;;;;;;;8.17;68.90234;101337.9;;;;-74
2022/10/10 05:02:06;;;;;;;;;;;;;;;8.2;68.32129;101341.3;;;;-73
2022/10/10 05:03:26;;;;;;;6.8;3.5;;;;;;;;;;;;;-72
2022/10/10 05:07:05;;;;;;;;;;;;;;;8.16;68.38184;101336.1;;;;-74
2022/10/10 05:12:05;;;;;;;;;;;;;;;8.13;68.53223;101340.2;;;;-73
2022/10/10 05:17:05;;;;;;;;;;;;;;;8.12;68.00977;101340.9;;;;-76
2022/10/10 05:22:05;;;;;;;;;;;;;;;8.13;68.20117;101338.4;;;;-74
2022/10/10 05:27:06;;;;;;;;;;;;;;;8.09;67.90625;101342;;;;-74
2022/10/10 05:32:05;;;;;;;;;;;;;;;8.05;68.34277;101346.7;;;;-73
2022/10/10 05:33:26;;;;;;;8.8;3.6;;;;;;;;;;;;;-75
2022/10/10 05:37:05;;;;;;;;;;;;;;;7.99;68.10059;101343.3;;;;-74
2022/10/10 05:42:05;;;;;;;;;;;;;;;7.99;68.0127;101344.9;;;;-73
2022/10/10 05:47:05;;;;;;;;;;;;;;;7.96;68.59473;101342.4;;;;-75
2022/10/10 05:52:05;;;;;;;;;;;;;;;7.97;67.97656;101343.1;;;;-75
2022/10/10 05:57:05;;;;;;;;;;;;;;;7.97;68.0752;101344.1;;;;-73
2022/10/10 06:02:05;;;;;;;;;;;;;;;7.95;68.16309;101339.3;;;;-72
2022/10/10 06:03:26;;;;;;;6.7;3.2;;;;;;;;;;;;;-70
2022/10/10 06:07:05;;;;;;;;;;;;;;;7.93;68.59863;101343.7;;;;-71
2022/10/10 06:12:05;;;;;;;;;;;;;;;7.92;68.71777;101349;;;;-73
2022/10/10 06:17:05;;;;;;;;;;;;;;;7.93;68.10352;101349.4;;;;-75
2022/10/10 06:22:05;;;;;;;;;;;;;;;7.93;68.22461;101355.9;;;;-75
2022/10/10 06:27:05;;;;;;;;;;;;;;;7.98;68.94922;101358.9;;;;-72
2022/10/10 06:32:08;;;;;;;;;;;;;;;8.01;68.81152;101360.4;;;;-75
2022/10/10 06:33:26;;;;;;;7.5;3.9;;;;;;;;;;;;;-74
2022/10/10 06:37:07;;;;;;;;;;;;;;;8.08;69.24219;101361.6;;;;-74
2022/10/10 06:42:05;;;;;;;;;;;;;;;8.2;68.24512;101363.7;;;;-76
2022/10/10 06:47:05;;;;;;;;;;;;;;;8.3;68.82324;101356.9;;;;-74
2022/10/10 06:52:05;;;;;;;;;;;;;;;8.45;68.30566;101361.1;;;;-74
2022/10/10 06:57:06;;;;;;;;;;;;;;;8.59;69.48926;101367.1;;;;-74
2022/10/10 07:02:05;;;;;;;;;;;;;;;8.74;68.15234;101364.9;;;;-73
2022/10/10 07:03:27;;;;;;;8.4;3.9;;;;;;;;;;;;;-74
2022/10/10 07:07:05;;;;;;;;;;;;;;;8.93;68.97949;101364.6;;;;-75
2022/10/10 07:12:09;;;;;;;;;;;;;;;9.11;68.47559;101376.7;;;;-73
2022/10/10 07:17:05;;;;;;;;;;;;;;;9.21;68.19336;101373.6;;;;-74
2022/10/10 07:22:05;;;;;;;;;;;;;;;9.28;68.27051;101374.9;;;;-75
2022/10/10 07:27:05;;;;;;;;;;;;;;;9.36;68.79199;101371.1;;;;-73
2022/10/10 07:32:07;;;;;;;;;;;;;;;9.54;70.54688;101376;;;;-74
2022/10/10 07:33:27;;;;;;;10;4.9;;;;;;;;;;;;;-77
2022/10/10 07:37:06;;;;;;;;;;;;;;;9.71;68.76953;101377.6;;;;-75
2022/10/10 07:42:05;;;;;;;;;;;;;;;9.91;69.32324;101376.5;;;;-74
2022/10/10 07:47:05;;;;;;;;;;;;;;;10.13;68.54883;101378.4;;;;-73
2022/10/10 07:52:05;;;;;;;;;;;;;;;10.33;68.50098;101377.1;;;;-74
2022/10/10 07:57:05;;;;;;;;;;;;;;;10.47;68.88965;101370.6;;;;-74
2022/10/10 08:02:05;;;;;;;;;;;;;;;10.55;67.60352;101363.4;;;;-73
2022/10/10 08:03:30;;;;;;;10.8;5;;;;;;;;;;;;;-75
2022/10/10 08:07:22;;;;;;;;;;;;;;;10.74;67.74316;101380.1;;;;-72
2022/10/10 08:11:43;;;;;;;;;;;;;;;10.78;68.77246;101376.9;;;;-75
2022/10/10 08:16:43;;;;;;;;;;;;;;;10.86;67.82813;101398.7;;;;-73
2022/10/10 08:21:43;;;;;;;;;;;;;;;10.96;69.79004;101409.1;;;;-75
2022/10/10 08:26:43;;;;;;;;;;;;;;;11.04;69.89063;101409.9;;;;-74
2022/10/10 08:31:43;;;;;;;;;;;;;;;11.1;68.32227;101410.7;;;;-75
2022/10/10 08:33:29;;;;;;;9.8;5.1;;;;;;;;;;;;;-74
2022/10/10 08:36:43;;;;;;;;;;;;;;;11.19;69.09082;101417.6;;;;-74
2022/10/10 08:41:45;;;;;;;;;;;;;;;11.25;70.24805;101422.1;;;;-75
2022/10/10 08:46:47;;;;;;;;;;;;;;;11.33;69.50293;101428.3;;;;-74
2022/10/10 08:51:44;;;;;;;;;;;;;;;11.44;69.27734;101419.2;;;;-75
2022/10/10 08:56:44;;;;;;;;;;;;;;;11.56;68.87207;101411.3;;;;-74
2022/10/10 09:01:43;;;;;;;;;;;;;;;11.62;68.73828;101402.4;;;;-74
2022/10/10 09:03:33;;;;;;;10.1;5.4;;;;;;;;;;;;;-74
2022/10/10 09:06:49;;;;;;;;;;;;;;;11.65;69.71094;101407.5;;;;-77
2022/10/10 09:11:50;;;;;;;;;;;;;;;11.67;69.4248;101417.1;;;;-77
2022/10/10 09:16:49;;;;;;;;;;;;;;;11.67;69.22461;101425.6;;;;-76
2022/10/10 09:21:44;;;;;;;;;;;;;;;11.77;69.57422;101425.1;;;;-77
2022/10/10 09:26:46;;;;;;;;;;;;;;;11.99;70.35449;101433;;;;-77
2022/10/10 09:31:46;;;;;;;;;;;;;;;12.28;69.9873;101428.5;;;;-76
2022/10/10 09:33:34;;;;;;;12.8;6.1;;;;;;;;;;;;;-77
2022/10/10 09:36:43;;;;;;;;;;;;;;;12.54;69.32715;101438.7;;;;-78
2022/10/10 09:41:46;;;;;;;;;;;;;;;12.67;69.61621;101441;;;;-76
2022/10/10 09:46:43;;;;;;;;;;;;;;;12.74;70.34082;101445;;;;-78
2022/10/10 09:51:43;;;;;;;;;;;;;;;12.91;69.49902;101445;;;;-76
2022/10/10 09:56:48;;;;;;;;;;;;;;;13.03;70.65527;101450.2;;;;-77
2022/10/10 10:01:43;;;;;;;;;;;;;;;13.14;69.94824;101464.1;;;;-76
2022/10/10 10:03:31;;;;;;;11.7;5.8;;;;;;;;;;;;;-77
2022/10/10 10:06:45;;;;;;;;;;;;;;;13.15;69.07715;101472.3;;;;-76
2022/10/10 10:11:43;;;;;;;;;;;;;;;13.16;70.44238;101487.5;;;;-73
2022/10/10 10:16:45;;;;;;;;;;;;;;;13.19;71.30664;101487.7;;;;-75
2022/10/10 10:21:52;;;;;;;;;;;;;;;13.21;71.85645;101496.7;;;;-75
2022/10/10 10:26:49;;;;;;;;;;;;;;;13.25;71.96289;101499.5;;;;-74
2022/10/10 10:31:57;;;;;;;;;;;;;;;13.28;72.50488;101513.5;;;;-74
2022/10/10 10:33:44;;;;;;;14.7;6.2;;;;;;;;;;;;;-74
2022/10/10 10:36:49;;;;;;;;;;;;;;;13.32;72.46582;101508.5;;;;-74
2022/10/10 10:41:48;;;;;;;;;;;;;;;13.39;72.51172;101512.1;;;;-74
2022/10/10 10:46:51;;;;;;;;;;;;;;;13.47;72.10059;101520.4;;;;-74
2022/10/10 10:51:54;;;;;;;;;;;;;;;13.47;72.58105;101521.1;;;;-74
2022/10/10 10:56:44;;;;;;;;;;;;;;;13.51;72.49707;101526;;;;-75
2022/10/10 11:01:46;;;;;;;;;;;;;;;13.54;73.10449;101534.3;;;;-75
2022/10/10 11:03:40;;;;;;;16.4;5.8;;;;;;;;;;;;;-74
2022/10/10 11:06:50;;;;;;;;;;;;;;;13.55;73.35352;101538.5;;;;-72
2022/10/10 11:11:49;;;;;;;;;;;;;;;13.61;72.94922;101543.5;;;;-74
2022/10/10 11:16:48;;;;;;;;;;;;;;;13.64;72.9668;101543;;;;-75
2022/10/10 11:21:48;;;;;;;;;;;;;;;13.69;72.5498;101546.2;;;;-74
2022/10/10 11:26:46;;;;;;;;;;;;;;;13.73;72.30957;101534.7;;;;-76
2022/10/10 11:31:46;;;;;;;;;;;;;;;13.77;71.91406;101544.5;;;;-75
2022/10/10 11:33:38;;;;;;;11.4;4.4;;;;;;;;;;;;;-74
2022/10/10 11:36:48;;;;;;;;;;;;;;;13.83;71.72266;101551.3;;;;-74
2022/10/10 11:41:47;;;;;;;;;;;;;;;13.83;72.41699;101556.3;;;;-75
2022/10/10 11:46:46;;;;;;;;;;;;;;;13.85;72.3291;101553.5;;;;-74
2022/10/10 11:51:48;;;;;;;;;;;;;;;13.84;73.14551;101561.2;;;;-74
2022/10/10 11:56:45;;;;;;;;;;;;;;;13.82;72.72754;101563.4;;;;-75
2022/10/10 12:01:45;;;;;;;;;;;;;;;13.8;72.75586;101574.4;;;;-73
2022/10/10 12:03:37;;;;;;;6.8;2.8;;;;;;;;;;;;;-74
2022/10/10 12:06:44;;;;;;;;;;;;;;;13.8;73.31641;101574.4;;;;-74
2022/10/10 12:11:46;;;;;;;;;;;;;;;13.83;72.58301;101579;;;;-71
2022/10/10 12:16:43;;;;;;;;;;;;;;;13.86;72.72168;101582.1;;;;-75
2022/10/10 12:21:56;;;;;;;;;;;;;;;13.86;73.06836;101587.1;;;;-73
2022/10/10 12:26:54;;;;;;;;;;;;;;;13.85;73.80469;101602.7;;;;-74
2022/10/10 12:31:43;;;;;;;;;;;;;;;13.76;74.3584;101625.3;;;;-75
2022/10/10 12:33:49;;;;;;;3.8;1.2;;;;;;;;;;;;;-76
2022/10/10 12:36:57;;;;;;;;;;;;;;;13.58;74.73145;101644.2;;;;-74
2022/10/10 12:41:54;;;;;;;;;;;;;;;13.5;75.26367;101653.2;;;;-74
2022/10/10 12:46:44;;;;;;;;;;;;;;;13.41;75.12598;101659.5;;;;-73
2022/10/10 12:51:45;;;;;;;;;;;;;;;13.35;75.73926;101665.1;;;;-74
2022/10/10 12:56:45;;;;;;;;;;;;;;;13.33;75.55762;101683.4;;;;-73
2022/10/10 13:01:46;;;;;;;;;;;;;;;13.28;75.76172;101690.1;;;;-74
2022/10/10 13:03:42;;;;;;;6.7;0.9;;;;;;;;;;;;;-71
2022/10/10 13:06:46;;;;;;;;;;;;;;;13.26;75.2793;101698.6;;;;-71
2022/10/10 13:11:56;;;;;;;;;;;;;;;13.3;76.43359;101714.3;;;;-74
2022/10/10 13:16:45;;;;;;;;;;;;;;;13.3;76.32227;101730.4;;;;-74
2022/10/10 13:21:43;;;;;;;;;;;;;;;13.29;76.56543;101741.5;;;;-73
2022/10/10 13:26:47;;;;;;;;;;;;;;;13.28;76.26172;101746.5;;;;-75
2022/10/10 13:31:43;;;;;;;;;;;;;;;13.24;76.55664;101744;;;;-74
2022/10/10 13:33:41;;;;;;;8.2;1.3;;;;;;;;;;;;;-76
2022/10/10 13:36:43;;;;;;;;;;;;;;;13.23;75.74121;101758.7;;;;-74
2022/10/10 13:41:43;;;;;;;;;;;;;;;13.32;75.41113;101760.7;;;;-74
2022/10/10 13:46:43;;;;;;;;;;;;;;;13.48;75.51563;101758.1;;;;-78
2022/10/10 13:51:54;;;;;;;;;;;;;;;13.62;74.45801;101766;;;;-74
2022/10/10 13:56:44;;;;;;;;;;;;;;;13.7;74.21387;101771.2;;;;-73
2022/10/10 14:01:44;;;;;;;;;;;;;;;13.8;74.12988;101784.4;;;;-74
2022/10/10 14:03:42;;;;;;;8.6;1.3;;;;;;;;;;;;;-74
2022/10/10 14:06:44;;;;;;;;;;;;;;;13.84;73.59082;101791.7;;;;-76
2022/10/10 14:11:44;;;;;;;;;;;;;;;13.84;73.02051;101802.8;;;;-73
2022/10/10 14:16:43;;;;;;;;;;;;;;;13.88;72.70313;101811;;;;-74
2022/10/10 14:21:43;;;;;;;;;;;;;;;13.88;71.87695;101820.5;;;;-74
2022/10/10 14:26:43;;;;;;;;;;;;;;;13.91;70.91992;101837.9;;;;-75
2022/10/10 14:31:43;;;;;;;;;;;;;;;13.95;70.69141;101847.9;;;;-74
2022/10/10 14:33:44;;;;;;;11;1.6;;;;;;;;;;;;;-75
2022/10/10 14:36:47;;;;;;;;;;;;;;;13.96;69.86621;101858.6;;;;-73
2022/10/10 14:41:43;;;;;;;;;;;;;;;13.97;69.26172;101860.8;;;;-74
2022/10/10 14:46:46;;;;;;;;;;;;;;;13.92;68.97559;101870.5;;;;-73
2022/10/10 14:51:43;;;;;;;;;;;;;;;13.9;68.62402;101874.8;;;;-75
2022/10/10 14:56:44;;;;;;;;;;;;;;;13.93;68.59668;101879.4;;;;-73
2022/10/10 15:01:43;;;;;;;;;;;;;;;13.9;68.04199;101892.5;;;;-73
2022/10/10 15:03:45;;;;;;;8.2;1.1;;;;;;;;;;;;;-74
2022/10/10 15:06:44;;;;;;;;;;;;;;;13.87;67.72461;101898.8;;;;-75
2022/10/10 15:11:43;;;;;;;;;;;;;;;13.85;67.7666;101904.3;;;;-74
2022/10/10 15:16:43;;;;;;;;;;;;;;;13.81;67.43652;101907.8;;;;-74
2022/10/10 15:21:46;;;;;;;;;;;;;;;13.78;67.13086;101919.1;;;;-74
2022/10/10 15:26:43;;;;;;;;;;;;;;;13.72;67.36719;101926.6;;;;-72
2022/10/10 15:31:45;;;;;;;;;;;;;;;13.66;67.45898;101932.2;;;;-72
2022/10/10 15:33:47;;;;;;;8.5;1.3;;;;;;;;;;;;;-75
2022/10/10 15:36:46;;;;;;;;;;;;;;;13.69;67.28418;101937.6;;;;-74
2022/10/10 15:41:43;;;;;;;;;;;;;;;13.71;67.39941;101944.8;;;;-74
2022/10/10 15:46:44;;;;;;;;;;;;;;;13.71;67.35449;101957;;;;-74
2022/10/10 15:51:45;;;;;;;;;;;;;;;13.66;67.16699;101968.3;;;;-73
2022/10/10 15:56:43;;;;;;;;;;;;;;;13.56;67.50977;101971.9;;;;-74
2022/10/10 16:01:43;;;;;;;;;;;;;;;13.43;67.24219;101977.4;;;;-74
2022/10/10 16:03:49;;;;;;;5.3;1.2;;;;;;;;;;;;;-75
2022/10/10 16:06:43;;;;;;;;;;;;;;;13.3;67.62695;101990.3;;;;-74
2022/10/10 16:11:43;;;;;;;;;;;;;;;13.17;67.2832;101999.5;;;;-74
2022/10/10 16:16:43;;;;;;;;;;;;;;;13.06;67.58887;102007.4;;;;-73
2022/10/10 16:21:43;;;;;;;;;;;;;;;12.95;67.75098;102017.3;;;;-73
2022/10/10 16:26:44;;;;;;;;;;;;;;;12.83;67.82227;102028.7;;;;-75
2022/10/10 16:31:43;;;;;;;;;;;;;;;12.7;67.90234;102041.5;;;;-73
2022/10/10 16:33:51;;;;;;;6.2;1.1;;;;;;;;;;;;;-74
2022/10/10 16:36:43;;;;;;;;;;;;;;;12.57;68.07227;102041.8;;;;-72
2022/10/10 16:41:43;;;;;;;;;;;;;;;12.45;67.77441;102051.9;;;;-74
2022/10/10 16:46:43;;;;;;;;;;;;;;;12.35;68.07227;102058.6;;;;-74
2022/10/10 16:51:44;;;;;;;;;;;;;;;12.28;68.12793;102072.3;;;;-75
2022/10/10 16:56:44;;;;;;;;;;;;;;;12.21;68.22754;102080.7;;;;-75
2022/10/10 17:01:43;;;;;;;;;;;;;;;12.11;68.47949;102086.9;;;;-73
2022/10/10 17:03:52;;;;;;;6.3;1;;;;;;;;;;;;;-74
2022/10/10 17:06:43;;;;;;;;;;;;;;;11.99;68.58203;102094.7;;;;-74
2022/10/10 17:11:45;;;;;;;;;;;;;;;11.87;68.16406;102100.7;;;;-73
2022/10/10 17:16:44;;;;;;;;;;;;;;;11.74;68.17676;102106;;;;-74
2022/10/10 17:21:43;;;;;;;;;;;;;;;11.6;67.97754;102114.2;;;;-75
2022/10/10 17:26:43;;;;;;;;;;;;;;;11.45;68.2207;102121.8;;;;-76
2022/10/10 17:31:44;;;;;;;;;;;;;;;11.32;68.56738;102132.1;;;;-75
2022/10/10 17:33:52;;;;;;;4.8;1.2;;;;;;;;;;;;;-73
2022/10/10 17:36:43;;;;;;;;;;;;;;;11.2;68.44922;102141.8;;;;-74
2022/10/10 17:41:47;;;;;;;;;;;;;;;11.05;68.5918;102149.6;;;;-74
2022/10/10 17:46:43;;;;;;;;;;;;;;;10.89;69.05566;102160.4;;;;-75
2022/10/10 17:51:43;;;;;;;;;;;;;;;10.74;68.87598;102171;;;;-73
2022/10/10 17:56:43;;;;;;;;;;;;;;;10.66;68.84277;102183.2;;;;-73
2022/10/10 18:01:43;;;;;;;;;;;;;;;10.48;68.94727;102194.8;;;;-75
2022/10/10 18:03:53;;;;;;;4.3;1;;;;;;;;;;;;;-74
2022/10/10 18:06:43;;;;;;;;;;;;;;;10.39;69.1543;102198.8;;;;-73
2022/10/10 18:11:43;;;;;;;;;;;;;;;10.28;69.42578;102203.6;;;;-75
2022/10/10 18:16:43;;;;;;;;;;;;;;;10.15;69.33887;102206.9;;;;-74
2022/10/10 18:21:44;;;;;;;;;;;;;;;10.05;69.5;102209.5;;;;-74
2022/10/10 18:26:43;;;;;;;;;;;;;;;9.94;69.49219;102221.1;;;;-74
2022/10/10 18:31:43;;;;;;;;;;;;;;;9.83;69.46387;102228.1;;;;-74
2022/10/10 18:33:57;;;;;;;4.2;0.8;;;;;;;;;;;;;-75
2022/10/10 18:36:43;;;;;;;;;;;;;;;9.74;69.75;102234.4;;;;-74
2022/10/10 18:41:43;;;;;;;;;;;;;;;9.68;69.79492;102243.4;;;;-75
2022/10/10 18:46:44;;;;;;;;;;;;;;;9.63;69.82129;102252.3;;;;-75
2022/10/10 18:51:44;;;;;;;;;;;;;;;9.58;69.63672;102256.8;;;;-74
2022/10/10 18:56:47;;;;;;;;;;;;;;;9.5;69.9209;102261.3;;;;-75
2022/10/10 19:01:45;;;;;;;;;;;;;;;9.45;69.94727;102263.5;;;;-74
2022/10/10 19:03:56;;;;;;;4;1.1;;;;;;;;;;;;;-74
2022/10/10 19:06:43;;;;;;;;;;;;;;;9.33;69.82813;102273.8;;;;-73
2022/10/10 19:11:44;;;;;;;;;;;;;;;9.27;69.96191;102280.2;;;;-74
2022/10/10 19:16:43;;;;;;;;;;;;;;;9.3;69.88867;102288.2;;;;-75
2022/10/10 19:21:43;;;;;;;;;;;;;;;9.35;69.92969;102289.8;;;;-75
2022/10/10 19:26:50;;;;;;;;;;;;;;;9.36;69.86621;102294.4;;;;-74
2022/10/10 19:31:43;;;;;;;;;;;;;;;9.39;69.7041;102303.3;;;;-74
2022/10/10 19:33:59;;;;;;;4.1;1.1;;;;;;;;;;;;;-75
2022/10/10 19:36:43;;;;;;;;;;;;;;;9.35;69.76465;102313.6;;;;-75
2022/10/10 19:41:43;;;;;;;;;;;;;;;9.28;69.91016;102324.4;;;;-73
2022/10/10 19:46:43;;;;;;;;;;;;;;;9.22;69.77832;102327.1;;;;-74
2022/10/10 19:51:43;;;;;;;;;;;;;;;9.16;69.98926;102332.6;;;;-75
2022/10/10 19:56:44;;;;;;;;;;;;;;;9.1;69.7041;102331.4;;;;-75
2022/10/10 20:01:43;;;;;;;;;;;;;;;9.06;69.89551;102337.3;;;;-74
2022/10/10 20:03:56;;;;;;;3.9;1.1;;;;;;;;;;;;;-74
2022/10/10 20:06:46;;;;;;;;;;;;;;;8.97;69.72461;102343.4;;;;-75
2022/10/10 20:11:43;;;;;;;;;;;;;;;8.89;70.02246;102353.8;;;;-76
2022/10/10 20:16:43;;;;;;;;;;;;;;;8.79;70.07227;102359.5;;;;-75
2022/10/10 20:21:43;;;;;;;;;;;;;;;8.74;70.00977;102367.7;;;;-75
2022/10/10 20:26:43;;;;;;;;;;;;;;;8.66;70.08496;102375.7;;;;-74
2022/10/10 20:31:43;;;;;;;;;;;;;;;8.58;69.87305;102382.2;;;;-75
2022/10/10 20:33:57;;;;;;;3.6;1;;;;;;;;;;;;;-74
2022/10/10 20:36:43;;;;;;;;;;;;;;;8.52;70.01758;102388.5;;;;-73
2022/10/10 20:41:43;;;;;;;;;;;;;;;8.48;69.98926;102387.3;;;;-76
2022/10/10 20:46:44;;;;;;;;;;;;;;;8.4;70.27441;102399;;;;-74
2022/10/10 20:51:47;;;;;;;;;;;;;;;8.3;70.11523;102408.5;;;;-74
2022/10/10 20:56:47;;;;;;;;;;;;;;;8.23;70.2041;102404.6;;;;-74
2022/10/10 21:01:44;;;;;;;;;;;;;;;8.17;70.35938;102411.6;;;;-73
2022/10/10 21:03:57;;;;;;;2.9;1.1;;;;;;;;;;;;;-76
2022/10/10 21:06:44;;;;;;;;;;;;;;;8.08;70.20215;102413.6;;;;-75
2022/10/10 21:11:44;;;;;;;;;;;;;;;8.01;70.44434;102414;;;;-74
2022/10/10 21:16:44;;;;;;;;;;;;;;;7.97;70.19434;102416.5;;;;-74
2022/10/10 21:21:43;;;;;;;;;;;;;;;7.83;70.30469;102430;;;;-74
2022/10/10 21:26:44;;;;;;;;;;;;;;;7.76;70.29395;102428.8;;;;-74
2022/10/10 21:31:43;;;;;;;;;;;;;;;7.74;70.11328;102438.2;;;;-74
2022/10/10 21:33:57;;;;;;;4.1;1.1;;;;;;;;;;;;;-75
2022/10/10 21:36:47;;;;;;;;;;;;;;;7.64;70.2959;102448.3;;;;-74
2022/10/10 21:41:43;;;;;;;;;;;;;;;7.6;70.37695;102448;;;;-74
2022/10/10 21:46:46;;;;;;;;;;;;;;;7.55;70.42578;102455.1;;;;-77
2022/10/10 22:01:22;;;;;;;;;;;;;;;;;;;;;
2022/10/10 22:09:03;;;;;;;;;;;;;;;7.31;70.27539;102489.4;;;;-74
2022/10/10 22:14:06;;;;;;;;;;;;;;;7.28;70.34863;102485;;;;-76
2022/10/10 22:19:03;;;;;;;;;;;;;;;7.27;70.18066;102491.5;;;;-76
2022/10/10 22:24:04;;;;;;;;;;;;;;;7.21;70.29297;102485.6;;;;-75
2022/10/10 22:29:03;;;;;;;;;;;;;;;7.16;70.28516;102487.7;;;;-75
2022/10/10 22:33:59;;;;;;;5.8;1.2;;;;;;;;;;;;;-77
2022/10/10 22:34:09;;;;;;;;;;;;;;;7.1;70.8457;102494.5;;;;-76
2022/10/10 22:39:06;;;;;;;;;;;;;;;7.06;70.40137;102500;;;;-75
2022/10/10 22:44:03;;;;;;;;;;;;;;;7.05;70.14648;102500.5;;;;-77
2022/10/10 22:49:03;;;;;;;;;;;;;;;7.01;70.13867;102505.4;;;;-75
2022/10/10 22:54:03;;;;;;;;;;;;;;;6.93;70.15918;102513.8;;;;-75
2022/10/10 22:59:03;;;;;;;;;;;;;;;6.86;70.43457;102516.6;;;;-75
2022/10/10 23:04:07;;;;;;;5.1;1.3;;;;;;;;;;;;;-75
2022/10/10 23:04:19;;;;;;;;;;;;;;;6.86;70.1377;102513.1;;;;-73
2022/10/10 23:09:03;;;;;;;;;;;;;;;6.8;70.49023;102518.5;;;;-75
2022/10/10 23:14:03;;;;;;;;;;;;;;;6.75;70.11816;102527.1;;;;-74
2022/10/10 23:19:03;;;;;;;;;;;;;;;6.7;70.38574;102529.5;;;;-75
2022/10/10 23:24:03;;;;;;;;;;;;;;;6.64;70.22266;102525.5;;;;-75
2022/10/10 23:29:03;;;;;;;;;;;;;;;6.61;70.23926;102530;;;;-75
2022/10/10 23:33:58;;;;;;;3.8;1.1;;;;;;;;;;;;;-74
2022/10/10 23:34:07;;;;;;;;;;;;;;;6.6;70.30176;102534.8;;;;-74
2022/10/10 23:39:03;;;;;;;;;;;;;;;6.51;70.43164;102532.7;;;;-75
2022/10/10 23:44:03;;;;;;;;;;;;;;;6.46;70.18262;102526.7;;;;-75
2022/10/10 23:49:03;;;;;;;;;;;;;;;6.44;70.15723;102529.3;;;;-75
2022/10/10 23:54:06;;;;;;;;;;;;;;;6.44;70.44141;102528.3;;;;-77
2022/10/10 23:59:03;;;;;;;;;;;;;;;6.41;70.26172;102526.6;;;;-76
